Terminal Aerodrome Forecast
Issued by NWS Knoxville/Tri Cities, TN

Home | Current Version | Previous Version | Text Only | Print | Product List | Glossary On
Versions: 1 2 3 4 5 6 7 8 9 10 11 12 13 14 15 16 17 18 19 20 21 22 23 24 25 26 27 28 29 30
000
FTUS44 KMRX 240226 AAB
TAFCHA
TAF AMD
KCHA 240226Z 2402/2424 02005KT P6SM VCSH SCT012 BKN035
     FM240700 02010KT 4SM BR VCSH BKN006
     FM241300 02005KT P6SM BKN010
     FM241600 35005KT P6SM OVC015=

USA.gov is the U.S. government's official web portal to all federal, state and local government web resources and services.